sensor_id;sensor_type;location;lat;lon;timestamp;temperature;humidity
21149;DHT22;10732;51.472;6.466;2023-06-24T00:00:03;17.60;99.90
21149;DHT22;10732;51.472;6.466;2023-06-24T00:02:32;17.60;99.90
21149;DHT22;10732;51.472;6.466;2023-06-24T00:05:01;17.60;99.90
21149;DHT22;10732;51.472;6.466;2023-06-24T00:07:27;17.60;99.90
21149;DHT22;10732;51.472;6.466;2023-06-24T00:09:52;17.50;99.90
21149;DHT22;10732;51.472;6.466;2023-06-24T00:12:18;17.40;99.90
21149;DHT22;10732;51.472;6.466;2023-06-24T00:14:44;17.40;99.90
21149;DHT22;10732;51.472;6.466;2023-06-24T00:17:10;17.40;99.90
21149;DHT22;10732;51.472;6.466;2023-06-24T00:19:36;17.40;99.90
21149;DHT22;10732;51.472;6.466;2023-06-24T00:22:02;17.40;99.90
21149;DHT22;10732;51.472;6.466;2023-06-24T00:24:29;17.40;99.90
21149;DHT22;10732;51.472;6.466;2023-06-24T00:26:55;17.40;99.90
21149;DHT22;10732;51.472;6.466;2023-06-24T00:29:21;17.40;99.90
21149;DHT22;10732;51.472;6.466;2023-06-24T00:31:47;17.40;99.90
21149;DHT22;10732;51.472;6.466;2023-06-24T00:34:13;17.40;99.90
21149;DHT22;10732;51.472;6.466;2023-06-24T00:36:39;17.40;99.90
21149;DHT22;10732;51.472;6.466;2023-06-24T00:39:05;17.40;99.90
21149;DHT22;10732;51.472;6.466;2023-06-24T00:41:31;17.40;99.90
21149;DHT22;10732;51.472;6.466;2023-06-24T00:43:57;17.50;99.90
21149;DHT22;10732;51.472;6.466;2023-06-24T00:46:24;17.40;99.90
21149;DHT22;10732;51.472;6.466;2023-06-24T00:48:55;17.50;99.90
21149;DHT22;10732;51.472;6.466;2023-06-24T00:51:21;17.40;99.90
21149;DHT22;10732;51.472;6.466;2023-06-24T00:53:52;17.40;99.90
21149;DHT22;10732;51.472;6.466;2023-06-24T00:56:19;17.40;99.90
21149;DHT22;10732;51.472;6.466;2023-06-24T00:58:47;17.40;99.90
21149;DHT22;10732;51.472;6.466;2023-06-24T01:01:13;17.40;99.90
21149;DHT22;10732;51.472;6.466;2023-06-24T01:03:40;17.40;99.90
21149;DHT22;10732;51.472;6.466;2023-06-24T01:06:06;17.40;99.90
21149;DHT22;10732;51.472;6.466;2023-06-24T01:08:32;17.40;99.90
21149;DHT22;10732;51.472;6.466;2023-06-24T01:10:57;17.40;99.90
21149;DHT22;10732;51.472;6.466;2023-06-24T01:13:23;17.40;99.90
21149;DHT22;10732;51.472;6.466;2023-06-24T01:15:49;17.40;99.90
21149;DHT22;10732;51.472;6.466;2023-06-24T01:18:38;17.30;99.90
21149;DHT22;10732;51.472;6.466;2023-06-24T01:26:32;17.40;99.90
21149;DHT22;10732;51.472;6.466;2023-06-24T01:29:20;17.40;99.90
21149;DHT22;10732;51.472;6.466;2023-06-24T01:34:46;17.40;99.90
21149;DHT22;10732;51.472;6.466;2023-06-24T01:37:22;17.40;99.90
21149;DHT22;10732;51.472;6.466;2023-06-24T01:39:56;17.40;99.90
21149;DHT22;10732;51.472;6.466;2023-06-24T01:42:22;17.40;99.90
21149;DHT22;10732;51.472;6.466;2023-06-24T01:44:49;17.40;99.90
21149;DHT22;10732;51.472;6.466;2023-06-24T01:47:21;17.40;99.90
21149;DHT22;10732;51.472;6.466;2023-06-24T01:49:49;17.40;99.90
21149;DHT22;10732;51.472;6.466;2023-06-24T01:52:18;17.40;99.90
21149;DHT22;10732;51.472;6.466;2023-06-24T01:54:46;17.40;99.90
21149;DHT22;10732;51.472;6.466;2023-06-24T01:57:13;17.40;99.90
21149;DHT22;10732;51.472;6.466;2023-06-24T01:59:42;17.30;99.90
21149;DHT22;10732;51.472;6.466;2023-06-24T02:02:11;17.30;99.90
21149;DHT22;10732;51.472;6.466;2023-06-24T02:04:37;17.30;99.90
21149;DHT22;10732;51.472;6.466;2023-06-24T02:07:04;17.30;99.90
21149;DHT22;10732;51.472;6.466;2023-06-24T02:09:32;17.30;99.90
21149;DHT22;10732;51.472;6.466;2023-06-24T02:12:00;17.30;99.90
21149;DHT22;10732;51.472;6.466;2023-06-24T02:14:27;17.30;99.90
21149;DHT22;10732;51.472;6.466;2023-06-24T02:16:55;17.30;99.90
21149;DHT22;10732;51.472;6.466;2023-06-24T02:19:24;17.30;99.90
21149;DHT22;10732;51.472;6.466;2023-06-24T02:21:51;17.30;99.90
21149;DHT22;10732;51.472;6.466;2023-06-24T02:24:19;17.20;99.90
21149;DHT22;10732;51.472;6.466;2023-06-24T02:26:45;17.20;99.90
21149;DHT22;10732;51.472;6.466;2023-06-24T02:29:12;17.20;99.90
21149;DHT22;10732;51.472;6.466;2023-06-24T02:31:38;17.20;99.90
21149;DHT22;10732;51.472;6.466;2023-06-24T02:34:04;17.20;99.90
21149;DHT22;10732;51.472;6.466;2023-06-24T02:36:30;17.10;99.90
21149;DHT22;10732;51.472;6.466;2023-06-24T02:38:55;17.10;99.90
21149;DHT22;10732;51.472;6.466;2023-06-24T02:41:21;17.00;99.90
21149;DHT22;10732;51.472;6.466;2023-06-24T02:43:46;17.00;99.90
21149;DHT22;10732;51.472;6.466;2023-06-24T02:46:13;17.00;99.90
21149;DHT22;10732;51.472;6.466;2023-06-24T02:48:40;17.00;99.90
21149;DHT22;10732;51.472;6.466;2023-06-24T02:51:07;16.90;99.90
21149;DHT22;10732;51.472;6.466;2023-06-24T02:53:36;16.90;99.90
21149;DHT22;10732;51.472;6.466;2023-06-24T02:56:04;16.80;99.90
21149;DHT22;10732;51.472;6.466;2023-06-24T02:58:30;16.80;99.90
21149;DHT22;10732;51.472;6.466;2023-06-24T03:01:00;16.80;99.90
21149;DHT22;10732;51.472;6.466;2023-06-24T03:03:28;16.80;99.90
21149;DHT22;10732;51.472;6.466;2023-06-24T03:05:54;16.70;99.90
21149;DHT22;10732;51.472;6.466;2023-06-24T03:08:22;16.70;99.90
21149;DHT22;10732;51.472;6.466;2023-06-24T03:10:50;16.60;99.90
21149;DHT22;10732;51.472;6.466;2023-06-24T03:13:16;16.60;99.90
21149;DHT22;10732;51.472;6.466;2023-06-24T03:15:41;16.60;99.90
21149;DHT22;10732;51.472;6.466;2023-06-24T03:18:07;16.50;99.90
21149;DHT22;10732;51.472;6.466;2023-06-24T03:20:32;16.50;99.90
21149;DHT22;10732;51.472;6.466;2023-06-24T03:23:07;16.50;99.90
21149;DHT22;10732;51.472;6.466;2023-06-24T03:25:33;16.40;99.90
21149;DHT22;10732;51.472;6.466;2023-06-24T03:27:59;16.40;99.90
21149;DHT22;10732;51.472;6.466;2023-06-24T03:30:33;16.40;99.90
21149;DHT22;10732;51.472;6.466;2023-06-24T03:32:58;16.30;99.90
21149;DHT22;10732;51.472;6.466;2023-06-24T03:35:24;16.30;99.90
21149;DHT22;10732;51.472;6.466;2023-06-24T03:37:49;16.40;99.90
21149;DHT22;10732;51.472;6.466;2023-06-24T03:40:15;16.40;99.90
21149;DHT22;10732;51.472;6.466;2023-06-24T03:42:40;16.40;99.90
21149;DHT22;10732;51.472;6.466;2023-06-24T03:45:06;16.50;99.90
21149;DHT22;10732;51.472;6.466;2023-06-24T03:47:32;16.50;99.90
21149;DHT22;10732;51.472;6.466;2023-06-24T03:49:57;16.70;99.90
21149;DHT22;10732;51.472;6.466;2023-06-24T03:52:23;16.70;99.90
21149;DHT22;10732;51.472;6.466;2023-06-24T03:54:49;16.80;99.90
21149;DHT22;10732;51.472;6.466;2023-06-24T03:57:15;16.90;99.90
21149;DHT22;10732;51.472;6.466;2023-06-24T03:59:40;16.90;99.90
21149;DHT22;10732;51.472;6.466;2023-06-24T04:02:06;16.90;99.90
21149;DHT22;10732;51.472;6.466;2023-06-24T04:04:35;17.00;99.90
21149;DHT22;10732;51.472;6.466;2023-06-24T04:07:01;17.10;99.90
21149;DHT22;10732;51.472;6.466;2023-06-24T04:09:27;17.00;99.90
21149;DHT22;10732;51.472;6.466;2023-06-24T04:11:52;17.00;99.90
21149;DHT22;10732;51.472;6.466;2023-06-24T04:14:18;17.00;99.90
21149;DHT22;10732;51.472;6.466;2023-06-24T04:16:43;17.00;99.90
21149;DHT22;10732;51.472;6.466;2023-06-24T04:19:09;17.00;99.90
21149;DHT22;10732;51.472;6.466;2023-06-24T04:21:34;17.10;99.90
21149;DHT22;10732;51.472;6.466;2023-06-24T04:24:00;17.20;99.90
21149;DHT22;10732;51.472;6.466;2023-06-24T04:26:25;17.40;99.90
21149;DHT22;10732;51.472;6.466;2023-06-24T04:28:51;17.50;99.90
21149;DHT22;10732;51.472;6.466;2023-06-24T04:31:16;17.70;99.90
21149;DHT22;10732;51.472;6.466;2023-06-24T04:33:42;17.70;99.90
21149;DHT22;10732;51.472;6.466;2023-06-24T04:36:07;17.90;99.90
21149;DHT22;10732;51.472;6.466;2023-06-24T04:38:33;18.00;99.90
21149;DHT22;10732;51.472;6.466;2023-06-24T04:40:58;18.10;99.90
21149;DHT22;10732;51.472;6.466;2023-06-24T04:43:25;18.00;99.90
21149;DHT22;10732;51.472;6.466;2023-06-24T04:45:53;18.10;99.90
21149;DHT22;10732;51.472;6.466;2023-06-24T04:48:21;18.10;99.90
21149;DHT22;10732;51.472;6.466;2023-06-24T04:50:47;18.10;99.90
21149;DHT22;10732;51.472;6.466;2023-06-24T04:53:12;18.40;99.90
21149;DHT22;10732;51.472;6.466;2023-06-24T04:55:38;18.80;99.90
21149;DHT22;10732;51.472;6.466;2023-06-24T04:58:04;19.70;99.90
21149;DHT22;10732;51.472;6.466;2023-06-24T05:00:29;20.40;99.50
21149;DHT22;10732;51.472;6.466;2023-06-24T05:02:55;20.90;1.00
21149;DHT22;10732;51.472;6.466;2023-06-24T05:05:20;21.20;1.00
21149;DHT22;10732;51.472;6.466;2023-06-24T05:07:46;21.70;1.00
21149;DHT22;10732;51.472;6.466;2023-06-24T05:10:11;22.40;99.90
21149;DHT22;10732;51.472;6.466;2023-06-24T05:12:37;22.30;1.00
21149;DHT22;10732;51.472;6.466;2023-06-24T05:15:02;22.50;99.90
21149;DHT22;10732;51.472;6.466;2023-06-24T05:17:28;22.90;99.90
21149;DHT22;10732;51.472;6.466;2023-06-24T05:19:54;23.00;1.00
21149;DHT22;10732;51.472;6.466;2023-06-24T05:22:19;23.20;99.90
21149;DHT22;10732;51.472;6.466;2023-06-24T05:24:45;23.60;99.90
21149;DHT22;10732;51.472;6.466;2023-06-24T05:27:10;23.80;13.00
21149;DHT22;10732;51.472;6.466;2023-06-24T05:29:36;23.80;99.90
21149;DHT22;10732;51.472;6.466;2023-06-24T05:32:02;23.60;1.00
21149;DHT22;10732;51.472;6.466;2023-06-24T05:34:29;23.40;99.90
21149;DHT22;10732;51.472;6.466;2023-06-24T05:36:55;23.70;1.00
21149;DHT22;10732;51.472;6.466;2023-06-24T05:39:20;23.70;19.10
21149;DHT22;10732;51.472;6.466;2023-06-24T05:41:46;23.80;1.00
21149;DHT22;10732;51.472;6.466;2023-06-24T05:44:14;24.60;1.00
21149;DHT22;10732;51.472;6.466;2023-06-24T05:46:39;24.80;99.90
21149;DHT22;10732;51.472;6.466;2023-06-24T05:49:05;24.50;99.90
21149;DHT22;10732;51.472;6.466;2023-06-24T05:51:30;24.20;1.00
21149;DHT22;10732;51.472;6.466;2023-06-24T05:53:56;24.00;99.90
21149;DHT22;10732;51.472;6.466;2023-06-24T05:56:22;23.60;99.90
21149;DHT22;10732;51.472;6.466;2023-06-24T05:58:48;25.10;99.90
21149;DHT22;10732;51.472;6.466;2023-06-24T06:01:14;24.90;1.00
21149;DHT22;10732;51.472;6.466;2023-06-24T06:03:40;25.00;1.00
21149;DHT22;10732;51.472;6.466;2023-06-24T06:06:06;25.90;99.90
21149;DHT22;10732;51.472;6.466;2023-06-24T06:08:32;25.70;1.00
21149;DHT22;10732;51.472;6.466;2023-06-24T06:10:59;25.80;1.00
21149;DHT22;10732;51.472;6.466;2023-06-24T06:13:25;26.00;1.00
21149;DHT22;10732;51.472;6.466;2023-06-24T06:15:51;26.00;1.00
21149;DHT22;10732;51.472;6.466;2023-06-24T06:18:16;25.90;99.90
21149;DHT22;10732;51.472;6.466;2023-06-24T06:20:42;26.30;1.00
21149;DHT22;10732;51.472;6.466;2023-06-24T06:23:07;26.30;99.90
21149;DHT22;10732;51.472;6.466;2023-06-24T06:25:33;26.40;99.90
21149;DHT22;10732;51.472;6.466;2023-06-24T06:27:58;26.80;65.60
21149;DHT22;10732;51.472;6.466;2023-06-24T06:30:24;28.50;99.90
21149;DHT22;10732;51.472;6.466;2023-06-24T06:32:50;30.10;99.90
21149;DHT22;10732;51.472;6.466;2023-06-24T06:35:15;30.70;99.90
21149;DHT22;10732;51.472;6.466;2023-06-24T06:37:41;30.70;99.90
21149;DHT22;10732;51.472;6.466;2023-06-24T06:40:07;31.90;99.90
21149;DHT22;10732;51.472;6.466;2023-06-24T06:42:32;31.30;1.00
21149;DHT22;10732;51.472;6.466;2023-06-24T06:44:58;30.90;25.20
21149;DHT22;10732;51.472;6.466;2023-06-24T06:47:23;31.00;14.80
21149;DHT22;10732;51.472;6.466;2023-06-24T06:49:49;30.60;1.00
21149;DHT22;10732;51.472;6.466;2023-06-24T06:52:15;31.10;1.00
21149;DHT22;10732;51.472;6.466;2023-06-24T06:54:41;31.70;22.60
21149;DHT22;10732;51.472;6.466;2023-06-24T06:57:06;32.30;99.90
21149;DHT22;10732;51.472;6.466;2023-06-24T06:59:32;32.80;99.90
21149;DHT22;10732;51.472;6.466;2023-06-24T07:01:58;33.40;99.90
21149;DHT22;10732;51.472;6.466;2023-06-24T07:04:24;33.60;99.90
21149;DHT22;10732;51.472;6.466;2023-06-24T07:06:49;33.50;99.90
21149;DHT22;10732;51.472;6.466;2023-06-24T07:09:15;33.00;99.90
21149;DHT22;10732;51.472;6.466;2023-06-24T07:11:41;32.60;99.90
21149;DHT22;10732;51.472;6.466;2023-06-24T07:14:07;32.50;99.90
21149;DHT22;10732;51.472;6.466;2023-06-24T07:16:33;33.30;99.90
21149;DHT22;10732;51.472;6.466;2023-06-24T07:18:58;33.90;99.90
21149;DHT22;10732;51.472;6.466;2023-06-24T07:21:24;33.00;99.90
21149;DHT22;10732;51.472;6.466;2023-06-24T07:23:49;32.90;99.90
21149;DHT22;10732;51.472;6.466;2023-06-24T07:26:15;31.90;99.90
21149;DHT22;10732;51.472;6.466;2023-06-24T07:28:40;31.30;99.90
21149;DHT22;10732;51.472;6.466;2023-06-24T07:31:06;30.60;99.90
21149;DHT22;10732;51.472;6.466;2023-06-24T07:33:31;30.50;99.90
21149;DHT22;10732;51.472;6.466;2023-06-24T07:35:57;31.50;99.90
21149;DHT22;10732;51.472;6.466;2023-06-24T07:38:22;30.90;99.90
21149;DHT22;10732;51.472;6.466;2023-06-24T07:40:48;31.30;99.90
21149;DHT22;10732;51.472;6.466;2023-06-24T07:43:14;31.60;99.90
21149;DHT22;10732;51.472;6.466;2023-06-24T07:45:39;32.00;99.90
21149;DHT22;10732;51.472;6.466;2023-06-24T07:48:05;32.00;99.90
21149;DHT22;10732;51.472;6.466;2023-06-24T07:50:32;32.40;99.90
21149;DHT22;10732;51.472;6.466;2023-06-24T07:52:58;32.20;99.90
21149;DHT22;10732;51.472;6.466;2023-06-24T07:55:23;32.50;99.90
21149;DHT22;10732;51.472;6.466;2023-06-24T07:57:49;31.90;99.90
21149;DHT22;10732;51.472;6.466;2023-06-24T08:00:15;31.80;99.90
21149;DHT22;10732;51.472;6.466;2023-06-24T08:02:41;32.30;99.90
21149;DHT22;10732;51.472;6.466;2023-06-24T08:05:07;32.30;99.90
21149;DHT22;10732;51.472;6.466;2023-06-24T08:07:34;31.90;99.90
21149;DHT22;10732;51.472;6.466;2023-06-24T08:10:00;31.70;99.90
21149;DHT22;10732;51.472;6.466;2023-06-24T08:12:25;32.20;99.90
21149;DHT22;10732;51.472;6.466;2023-06-24T08:14:51;32.70;99.90
21149;DHT22;10732;51.472;6.466;2023-06-24T08:17:16;32.70;99.90
21149;DHT22;10732;51.472;6.466;2023-06-24T08:19:42;33.00;99.90
21149;DHT22;10732;51.472;6.466;2023-06-24T08:22:07;33.30;99.90
21149;DHT22;10732;51.472;6.466;2023-06-24T08:24:33;31.70;99.90
21149;DHT22;10732;51.472;6.466;2023-06-24T08:26:59;32.20;99.90
21149;DHT22;10732;51.472;6.466;2023-06-24T08:29:24;32.30;99.90
21149;DHT22;10732;51.472;6.466;2023-06-24T08:31:50;32.80;99.90
21149;DHT22;10732;51.472;6.466;2023-06-24T08:34:15;32.10;99.90
21149;DHT22;10732;51.472;6.466;2023-06-24T08:36:41;33.00;99.90
21149;DHT22;10732;51.472;6.466;2023-06-24T08:39:07;32.70;99.90
21149;DHT22;10732;51.472;6.466;2023-06-24T08:41:33;32.30;99.90
21149;DHT22;10732;51.472;6.466;2023-06-24T08:43:59;31.40;99.90
21149;DHT22;10732;51.472;6.466;2023-06-24T08:46:25;31.00;99.90
21149;DHT22;10732;51.472;6.466;2023-06-24T08:49:00;31.70;99.90
21149;DHT22;10732;51.472;6.466;2023-06-24T08:51:29;32.60;99.90
21149;DHT22;10732;51.472;6.466;2023-06-24T08:53:58;33.60;99.90
21149;DHT22;10732;51.472;6.466;2023-06-24T08:56:24;33.30;99.90
21149;DHT22;10732;51.472;6.466;2023-06-24T08:58:50;33.00;99.90
21149;DHT22;10732;51.472;6.466;2023-06-24T09:01:17;33.00;99.90
21149;DHT22;10732;51.472;6.466;2023-06-24T09:03:42;31.90;99.90
21149;DHT22;10732;51.472;6.466;2023-06-24T09:06:08;32.80;99.90
21149;DHT22;10732;51.472;6.466;2023-06-24T09:08:33;31.00;99.90
21149;DHT22;10732;51.472;6.466;2023-06-24T09:11:01;31.20;99.90
21149;DHT22;10732;51.472;6.466;2023-06-24T09:13:44;31.80;99.90
21149;DHT22;10732;51.472;6.466;2023-06-24T09:16:14;31.40;99.90
21149;DHT22;10732;51.472;6.466;2023-06-24T09:18:39;32.30;99.90
21149;DHT22;10732;51.472;6.466;2023-06-24T09:21:05;33.60;99.90
21149;DHT22;10732;51.472;6.466;2023-06-24T09:23:36;33.70;99.90
21149;DHT22;10732;51.472;6.466;2023-06-24T09:26:02;32.60;99.90
21149;DHT22;10732;51.472;6.466;2023-06-24T09:28:28;32.50;99.90
21149;DHT22;10732;51.472;6.466;2023-06-24T09:31:07;32.00;99.90
21149;DHT22;10732;51.472;6.466;2023-06-24T09:33:33;31.80;99.90
21149;DHT22;10732;51.472;6.466;2023-06-24T09:36:02;31.30;99.90
21149;DHT22;10732;51.472;6.466;2023-06-24T09:38:35;31.60;99.90
21149;DHT22;10732;51.472;6.466;2023-06-24T09:41:02;31.40;99.90
21149;DHT22;10732;51.472;6.466;2023-06-24T09:43:29;31.60;99.90
21149;DHT22;10732;51.472;6.466;2023-06-24T09:45:56;33.00;99.90
21149;DHT22;10732;51.472;6.466;2023-06-24T09:48:22;31.50;99.90
21149;DHT22;10732;51.472;6.466;2023-06-24T09:50:48;31.80;99.90
21149;DHT22;10732;51.472;6.466;2023-06-24T09:53:14;32.30;99.90
21149;DHT22;10732;51.472;6.466;2023-06-24T09:55:40;31.90;99.90
21149;DHT22;10732;51.472;6.466;2023-06-24T09:58:09;31.90;99.90
21149;DHT22;10732;51.472;6.466;2023-06-24T10:00:35;33.20;99.90
21149;DHT22;10732;51.472;6.466;2023-06-24T10:03:00;33.80;99.90
21149;DHT22;10732;51.472;6.466;2023-06-24T10:05:27;34.10;99.90
21149;DHT22;10732;51.472;6.466;2023-06-24T10:07:53;34.10;99.90
21149;DHT22;10732;51.472;6.466;2023-06-24T10:10:18;32.90;99.90
21149;DHT22;10732;51.472;6.466;2023-06-24T10:12:44;32.30;99.90
21149;DHT22;10732;51.472;6.466;2023-06-24T10:15:10;32.80;99.90
21149;DHT22;10732;51.472;6.466;2023-06-24T10:17:36;33.50;99.90
21149;DHT22;10732;51.472;6.466;2023-06-24T10:20:05;33.40;99.90
21149;DHT22;10732;51.472;6.466;2023-06-24T10:22:32;33.00;99.90
21149;DHT22;10732;51.472;6.466;2023-06-24T10:25:01;33.90;99.90
21149;DHT22;10732;51.472;6.466;2023-06-24T10:27:27;34.40;99.90
21149;DHT22;10732;51.472;6.466;2023-06-24T10:30:02;34.80;99.90
21149;DHT22;10732;51.472;6.466;2023-06-24T10:32:39;35.10;99.90
21149;DHT22;10732;51.472;6.466;2023-06-24T10:35:07;35.30;99.90
21149;DHT22;10732;51.472;6.466;2023-06-24T10:37:33;34.20;99.90
21149;DHT22;10732;51.472;6.466;2023-06-24T10:39:59;34.50;99.90
21149;DHT22;10732;51.472;6.466;2023-06-24T10:42:39;35.20;99.90
21149;DHT22;10732;51.472;6.466;2023-06-24T10:47:40;34.50;99.90
21149;DHT22;10732;51.472;6.466;2023-06-24T10:50:07;34.80;99.90
21149;DHT22;10732;51.472;6.466;2023-06-24T10:52:38;34.60;99.90
21149;DHT22;10732;51.472;6.466;2023-06-24T10:55:04;34.80;99.90
21149;DHT22;10732;51.472;6.466;2023-06-24T10:57:29;34.50;99.90
21149;DHT22;10732;51.472;6.466;2023-06-24T10:59:56;33.50;99.90
21149;DHT22;10732;51.472;6.466;2023-06-24T11:02:25;34.20;99.90
21149;DHT22;10732;51.472;6.466;2023-06-24T11:04:55;34.30;99.90
21149;DHT22;10732;51.472;6.466;2023-06-24T11:07:25;34.80;99.90
21149;DHT22;10732;51.472;6.466;2023-06-24T11:09:56;34.20;99.90
21149;DHT22;10732;51.472;6.466;2023-06-24T11:12:27;34.50;99.90
21149;DHT22;10732;51.472;6.466;2023-06-24T11:15:07;34.40;99.90
21149;DHT22;10732;51.472;6.466;2023-06-24T11:17:34;34.80;99.90
21149;DHT22;10732;51.472;6.466;2023-06-24T11:20:00;34.90;99.90
21149;DHT22;10732;51.472;6.466;2023-06-24T11:22:27;35.10;99.90
21149;DHT22;10732;51.472;6.466;2023-06-24T11:24:54;34.50;99.90
21149;DHT22;10732;51.472;6.466;2023-06-24T11:27:27;33.70;99.90
21149;DHT22;10732;51.472;6.466;2023-06-24T11:29:54;33.70;99.90
21149;DHT22;10732;51.472;6.466;2023-06-24T11:32:20;32.90;99.90
21149;DHT22;10732;51.472;6.466;2023-06-24T11:34:47;32.40;99.90
21149;DHT22;10732;51.472;6.466;2023-06-24T11:37:14;32.30;99.90
21149;DHT22;10732;51.472;6.466;2023-06-24T11:39:40;32.20;99.90
21149;DHT22;10732;51.472;6.466;2023-06-24T11:42:07;32.00;99.90
21149;DHT22;10732;51.472;6.466;2023-06-24T11:44:34;31.80;99.90
21149;DHT22;10732;51.472;6.466;2023-06-24T11:47:08;31.70;99.90
21149;DHT22;10732;51.472;6.466;2023-06-24T11:49:53;31.40;99.90
21149;DHT22;10732;51.472;6.466;2023-06-24T11:54:59;31.50;99.90
21149;DHT22;10732;51.472;6.466;2023-06-24T11:57:47;31.20;99.90
21149;DHT22;10732;51.472;6.466;2023-06-24T12:00:14;31.20;99.90
21149;DHT22;10732;51.472;6.466;2023-06-24T12:02:40;31.20;99.90
21149;DHT22;10732;51.472;6.466;2023-06-24T12:05:06;31.50;99.90
21149;DHT22;10732;51.472;6.466;2023-06-24T12:07:31;31.70;99.90
21149;DHT22;10732;51.472;6.466;2023-06-24T12:09:57;30.80;99.90
21149;DHT22;10732;51.472;6.466;2023-06-24T12:12:22;30.50;99.90
21149;DHT22;10732;51.472;6.466;2023-06-24T12:14:48;30.90;99.90
21149;DHT22;10732;51.472;6.466;2023-06-24T12:17:13;31.00;99.90
21149;DHT22;10732;51.472;6.466;2023-06-24T12:19:39;31.10;99.90
21149;DHT22;10732;51.472;6.466;2023-06-24T12:22:04;31.00;99.90
21149;DHT22;10732;51.472;6.466;2023-06-24T12:24:30;31.00;99.90
21149;DHT22;10732;51.472;6.466;2023-06-24T12:26:55;30.70;99.90
21149;DHT22;10732;51.472;6.466;2023-06-24T12:29:21;30.70;99.90
21149;DHT22;10732;51.472;6.466;2023-06-24T12:31:47;30.60;99.90
21149;DHT22;10732;51.472;6.466;2023-06-24T12:34:12;30.70;99.90
21149;DHT22;10732;51.472;6.466;2023-06-24T12:36:38;30.90;99.90
21149;DHT22;10732;51.472;6.466;2023-06-24T12:39:03;30.90;99.90
21149;DHT22;10732;51.472;6.466;2023-06-24T12:41:29;31.20;99.90
21149;DHT22;10732;51.472;6.466;2023-06-24T12:43:55;30.90;99.90
21149;DHT22;10732;51.472;6.466;2023-06-24T12:46:20;30.80;99.90
21149;DHT22;10732;51.472;6.466;2023-06-24T12:48:46;30.70;99.90
21149;DHT22;10732;51.472;6.466;2023-06-24T12:51:11;30.80;99.90
21149;DHT22;10732;51.472;6.466;2023-06-24T12:53:37;30.40;99.90
21149;DHT22;10732;51.472;6.466;2023-06-24T12:56:03;29.90;99.90
21149;DHT22;10732;51.472;6.466;2023-06-24T12:58:28;30.50;99.90
21149;DHT22;10732;51.472;6.466;2023-06-24T13:00:54;30.80;99.90
21149;DHT22;10732;51.472;6.466;2023-06-24T13:03:19;30.40;99.90
21149;DHT22;10732;51.472;6.466;2023-06-24T13:05:45;30.40;99.90
21149;DHT22;10732;51.472;6.466;2023-06-24T13:08:10;30.70;99.90
21149;DHT22;10732;51.472;6.466;2023-06-24T13:10:37;30.70;99.90
21149;DHT22;10732;51.472;6.466;2023-06-24T13:13:03;30.50;99.90
21149;DHT22;10732;51.472;6.466;2023-06-24T13:15:29;30.50;99.90
21149;DHT22;10732;51.472;6.466;2023-06-24T13:17:55;30.70;99.90
21149;DHT22;10732;51.472;6.466;2023-06-24T13:20:20;30.70;99.90
21149;DHT22;10732;51.472;6.466;2023-06-24T13:22:46;30.80;99.90
21149;DHT22;10732;51.472;6.466;2023-06-24T13:25:11;30.90;99.90
21149;DHT22;10732;51.472;6.466;2023-06-24T13:27:37;30.60;99.90
21149;DHT22;10732;51.472;6.466;2023-06-24T13:30:02;30.60;99.90
21149;DHT22;10732;51.472;6.466;2023-06-24T13:32:29;30.50;99.90
21149;DHT22;10732;51.472;6.466;2023-06-24T13:34:55;30.40;99.90
21149;DHT22;10732;51.472;6.466;2023-06-24T13:37:20;30.40;99.90
21149;DHT22;10732;51.472;6.466;2023-06-24T13:39:46;30.60;99.90
21149;DHT22;10732;51.472;6.466;2023-06-24T13:42:12;30.70;99.90
21149;DHT22;10732;51.472;6.466;2023-06-24T13:44:38;30.40;99.90
21149;DHT22;10732;51.472;6.466;2023-06-24T13:47:04;30.10;99.90
21149;DHT22;10732;51.472;6.466;2023-06-24T13:49:29;30.30;99.90
21149;DHT22;10732;51.472;6.466;2023-06-24T13:51:55;30.10;99.90
21149;DHT22;10732;51.472;6.466;2023-06-24T13:54:21;30.30;99.90
21149;DHT22;10732;51.472;6.466;2023-06-24T13:56:46;30.40;99.90
21149;DHT22;10732;51.472;6.466;2023-06-24T13:59:12;30.30;99.90
21149;DHT22;10732;51.472;6.466;2023-06-24T14:01:38;30.20;99.90
21149;DHT22;10732;51.472;6.466;2023-06-24T14:04:03;30.30;99.90
21149;DHT22;10732;51.472;6.466;2023-06-24T14:06:29;30.10;99.90
21149;DHT22;10732;51.472;6.466;2023-06-24T14:08:55;29.60;99.90
21149;DHT22;10732;51.472;6.466;2023-06-24T14:11:20;29.20;99.90
21149;DHT22;10732;51.472;6.466;2023-06-24T14:13:46;29.20;99.90
21149;DHT22;10732;51.472;6.466;2023-06-24T14:16:12;28.90;99.90
21149;DHT22;10732;51.472;6.466;2023-06-24T14:18:38;28.60;99.90
21149;DHT22;10732;51.472;6.466;2023-06-24T14:21:05;28.80;99.90
21149;DHT22;10732;51.472;6.466;2023-06-24T14:23:32;29.00;99.90
21149;DHT22;10732;51.472;6.466;2023-06-24T14:25:57;29.40;99.90
21149;DHT22;10732;51.472;6.466;2023-06-24T14:28:24;29.50;99.90
21149;DHT22;10732;51.472;6.466;2023-06-24T14:30:50;29.70;99.90
21149;DHT22;10732;51.472;6.466;2023-06-24T14:33:15;29.70;99.90
21149;DHT22;10732;51.472;6.466;2023-06-24T14:35:41;29.80;99.90
21149;DHT22;10732;51.472;6.466;2023-06-24T14:38:07;29.90;99.90
21149;DHT22;10732;51.472;6.466;2023-06-24T14:40:33;29.70;99.90
21149;DHT22;10732;51.472;6.466;2023-06-24T14:42:59;29.20;99.90
21149;DHT22;10732;51.472;6.466;2023-06-24T14:45:25;29.50;99.90
21149;DHT22;10732;51.472;6.466;2023-06-24T14:47:50;29.50;99.90
21149;DHT22;10732;51.472;6.466;2023-06-24T14:50:16;29.70;99.90
21149;DHT22;10732;51.472;6.466;2023-06-24T14:52:41;29.90;99.90
21149;DHT22;10732;51.472;6.466;2023-06-24T14:55:07;29.80;99.90
21149;DHT22;10732;51.472;6.466;2023-06-24T14:57:33;29.60;99.90
21149;DHT22;10732;51.472;6.466;2023-06-24T14:59:58;29.70;99.90
21149;DHT22;10732;51.472;6.466;2023-06-24T15:02:24;29.80;99.90
21149;DHT22;10732;51.472;6.466;2023-06-24T15:04:51;29.80;99.90
21149;DHT22;10732;51.472;6.466;2023-06-24T15:07:17;29.70;99.90
21149;DHT22;10732;51.472;6.466;2023-06-24T15:09:42;29.30;99.90
21149;DHT22;10732;51.472;6.466;2023-06-24T15:12:08;29.20;99.90
21149;DHT22;10732;51.472;6.466;2023-06-24T15:14:34;29.50;99.90
21149;DHT22;10732;51.472;6.466;2023-06-24T15:16:59;29.70;99.90
21149;DHT22;10732;51.472;6.466;2023-06-24T15:19:25;29.60;99.90
21149;DHT22;10732;51.472;6.466;2023-06-24T15:21:51;29.50;99.90
21149;DHT22;10732;51.472;6.466;2023-06-24T15:24:16;29.20;99.90
21149;DHT22;10732;51.472;6.466;2023-06-24T15:26:42;29.30;99.90
21149;DHT22;10732;51.472;6.466;2023-06-24T15:29:07;29.60;99.90
21149;DHT22;10732;51.472;6.466;2023-06-24T15:31:33;29.50;99.90
21149;DHT22;10732;51.472;6.466;2023-06-24T15:33:58;29.70;99.90
21149;DHT22;10732;51.472;6.466;2023-06-24T15:36:24;29.80;99.90
21149;DHT22;10732;51.472;6.466;2023-06-24T15:38:52;29.80;99.90
21149;DHT22;10732;51.472;6.466;2023-06-24T15:41:18;29.50;99.90